Detalii statie ERDEI ROBERT [00001D0F]

Toti senzorii

Date Temperatura solului [C]Precipitatii [mm]Voltaj baterie [mV]Leaf Wetness [Min]HC Air temperature [C]HC Relative humidity [%]Punctul de roua [C]
medieminmaxsumaultimatimpmedieminmaxmediemediemin
2018-12-09 15:00:00 0 6854 7.44 7.24 7.88 0 0 0
2018-12-09 16:00:00 0 6796 7.07 6.94 7.2 0 0 0
2018-12-09 17:00:00 0 6786 6.69 6.25 6.92 0 0 0
2018-12-09 18:00:00 0 6766 6.35 6.07 6.64 0 0 0
2018-12-09 19:00:00 0 6766 5.9 5.66 6.24 0 0 0
2018-12-09 20:00:00 0 6756 5.51 5.27 5.74 0 0 0
2018-12-09 21:00:00 0 6748 5.22 4.97 5.39 0 0 0
2018-12-09 22:00:00 0 6748 4.95 4.86 5.03 0 0 0
2018-12-09 23:00:00 0 6738 4.6 4.33 4.98 0 0 0
2018-12-10 00:00:00 0 6738 4.35 4.06 4.6 0 0 0
2018-12-10 01:00:00 0 6738 3.99 3.15 4.29 0 0 0
2018-12-10 02:00:00 0 6728 2.72 2.25 3.05 0 0 0
2018-12-10 03:00:00 0 6728 3.25 3.06 3.38 0 0 0
2018-12-10 04:00:00 0 6728 3.49 3.38 3.65 0 0 0
2018-12-10 05:00:00 0 6718 3.86 3.71 4.01 0 0 0
2018-12-10 06:00:00 0 6728 4.09 4.03 4.17 0 0 0
2018-12-10 07:00:00 0 6718 4.12 4.04 4.22 0 0 0
2018-12-10 08:00:00 0 6718 4.04 3.92 4.15 0 0 0
2018-12-10 09:00:00 0 6728 4.15 3.94 4.42 0 0 0
2018-12-10 10:00:00 0 6914 5.05 4.42 5.57 0 0 0
2018-12-10 11:00:00 0 7166 6.63 5.75 7.04 0 0 0
2018-12-10 12:00:00 0 7166 7.59 7.22 8.07 0 0 0
2018-12-10 13:00:00 0 6854 8.23 7.83 8.79 0 0 0
2018-12-10 14:00:00 0 6806 7.68 7.5 8.04 0 0 0
2018-12-10 15:00:00 0 6786 7.28 7.05 7.48 0 0 0
2018-12-10 16:00:00 0.2 6766 6.3 4.98 7.06 0 0 0
2018-12-10 17:00:00 0.6 6748 4.53 4.26 4.87 0 0 0
2018-12-10 18:00:00 0.4 6748 4.08 3.94 4.23 0 0 0
2018-12-10 19:00:00 0.4 6738 3.59 3.13 3.94 0 0 0
2018-12-10 20:00:00 0.4 6738 3.81 3.66 3.96 0 0 0
2018-12-10 21:00:00 0.4 6728 3.77 3.65 3.85 0 0 0
2018-12-10 22:00:00 0 6728 3.64 3.18 3.95 0 0 0
2018-12-10 23:00:00 0 6718 3.09 2.93 3.21 0 0 0
2018-12-11 00:00:00 0 6718 2.62 2.26 3.06 0 0 0
2018-12-11 01:00:00 0 6708 1.15 -0.19 2.37 0 0 0
2018-12-11 02:00:00 0 6698 0.15 -0.49 0.68 0 0 0
2018-12-11 03:00:00 0 6698 0.44 0.16 0.67 0 0 0
2018-12-11 04:00:00 0 6698 -0.19 -0.8 0.43 0 0 0
2018-12-11 05:00:00 0 6688 -1.32 -1.63 -0.84 0 0 0
2018-12-11 06:00:00 0 6678 -1.36 -1.77 -1.18 0 0 0
2018-12-11 07:00:00 0 6688 -1.79 -2.69 -1.36 0 0 0
2018-12-11 08:00:00 0 6678 -2.68 -3.64 -2.12 0 0 0
2018-12-11 09:00:00 0 6718 -2.59 -3.03 -1.93 0 0 0
2018-12-11 10:00:00 0 7098 -1.38 -2.03 -0.46 0 0 0
2018-12-11 11:00:00 0 7166 0.23 -0.53 0.85 0 0 0